createdAt,value
2019-01-17T00:01:07.456Z,0.48
2019-01-17T00:04:09.675Z,0.57
2019-01-17T00:06:58.860Z,0.53
2019-01-17T00:09:52.745Z,0.59
2019-01-17T00:12:35.292Z,0.66
2019-01-17T00:15:30.257Z,0.53
2019-01-17T00:18:20.752Z,0.59
2019-01-17T00:21:19.767Z,0.71
2019-01-17T00:24:09.078Z,0.60
2019-01-17T00:27:12.366Z,0.65
2019-01-17T00:30:02.046Z,0.74
2019-01-17T00:32:56.959Z,0.77
2019-01-17T00:35:51.961Z,0.90
2019-01-17T00:38:47.891Z,0.79
2019-01-17T00:41:45.345Z,0.79
2019-01-17T00:44:43.842Z,0.88
2019-01-17T00:47:28.699Z,0.66
2019-01-17T00:50:14.838Z,0.75
2019-01-17T00:53:03.829Z,0.54
2019-01-17T00:56:03.486Z,0.56
2019-01-17T00:58:50.408Z,0.54
2019-01-17T01:01:41.292Z,0.41
2019-01-17T01:04:48.101Z,0.49
2019-01-17T01:07:47.221Z,0.64
2019-01-17T01:10:55.738Z,0.74
2019-01-17T01:13:49.018Z,0.72
2019-01-17T01:16:42.461Z,0.82
2019-01-17T01:19:31.267Z,0.84
2019-01-17T01:22:20.040Z,0.83
2019-01-17T01:25:09.301Z,0.90
2019-01-17T01:28:16.309Z,0.78
2019-01-17T01:31:06.438Z,0.79
2019-01-17T01:33:55.520Z,1.03
2019-01-17T01:36:40.582Z,1.43
2019-01-17T01:39:36.882Z,1.55
2019-01-17T01:42:15.644Z,1.85
2019-01-17T01:45:02.611Z,2.03
2019-01-17T01:48:08.043Z,2.29
2019-01-17T01:51:11.421Z,2.35
2019-01-17T01:53:42.633Z,2.43
2019-01-17T01:56:13.865Z,2.56
2019-01-17T01:58:45.940Z,2.43
2019-01-17T02:01:17.180Z,2.58
2019-01-17T02:03:48.418Z,2.43
2019-01-17T02:06:19.633Z,2.60
2019-01-17T02:08:50.921Z,2.52
2019-01-17T02:11:22.159Z,2.27
2019-01-17T02:13:53.552Z,2.19
2019-01-17T02:16:24.869Z,2.21
2019-01-17T02:19:01.465Z,2.15
2019-01-17T02:21:36.080Z,1.92
2019-01-17T02:24:08.553Z,1.96
2019-01-17T02:26:39.806Z,1.92
2019-01-17T02:29:43.655Z,1.96
2019-01-17T02:32:14.907Z,1.90
2019-01-17T02:34:46.097Z,1.81
2019-01-17T02:37:17.290Z,1.75
2019-01-17T02:39:48.606Z,1.79
2019-01-17T02:42:19.960Z,1.73
2019-01-17T02:44:51.508Z,1.72
2019-01-17T02:47:22.735Z,1.72
2019-01-17T02:49:54.017Z,1.75
2019-01-17T02:52:25.217Z,1.68
2019-01-17T02:54:56.444Z,1.66
2019-01-17T02:57:27.643Z,1.69
2019-01-17T02:59:58.817Z,1.66
2019-01-17T03:02:30.123Z,1.72
2019-01-17T03:05:01.334Z,1.64
2019-01-17T03:07:32.646Z,1.67
2019-01-17T03:10:04.930Z,1.67
2019-01-17T03:12:36.133Z,1.69
2019-01-17T03:15:07.527Z,1.51
2019-01-17T03:17:39.239Z,1.41
2019-01-17T03:20:11.949Z,1.35
2019-01-17T03:22:43.138Z,1.28
2019-01-17T03:25:14.377Z,1.36
2019-01-17T03:27:45.583Z,1.40
2019-01-17T03:30:18.592Z,1.40
2019-01-17T03:32:49.883Z,1.43
2019-01-17T03:35:21.092Z,1.40
2019-01-17T03:37:52.769Z,1.39
2019-01-17T03:40:24.037Z,1.42
2019-01-17T03:42:55.267Z,1.44
2019-01-17T03:45:26.482Z,1.45
2019-01-17T03:47:57.687Z,1.44
2019-01-17T03:50:29.295Z,1.49
2019-01-17T03:53:00.520Z,1.43
2019-01-17T03:55:31.893Z,1.36
2019-01-17T03:58:03.313Z,1.36
2019-01-17T04:00:35.847Z,1.32
2019-01-17T04:03:07.026Z,1.44
2019-01-17T04:05:38.357Z,1.18
2019-01-17T04:08:26.978Z,1.17
2019-01-17T04:10:59.835Z,1.11
2019-01-17T04:13:31.698Z,1.09
2019-01-17T04:16:02.908Z,0.98
2019-01-17T04:18:34.232Z,0.94
2019-01-17T04:21:05.448Z,1.00
2019-01-17T04:23:36.699Z,0.95
2019-01-17T04:26:07.880Z,0.96
2019-01-17T04:28:39.124Z,0.76
2019-01-17T04:31:10.476Z,0.84
2019-01-17T04:33:42.176Z,0.79
2019-01-17T04:36:13.377Z,0.78
2019-01-17T04:38:44.594Z,0.80
2019-01-17T04:41:15.835Z,0.85
2019-01-17T04:43:47.135Z,0.63
2019-01-17T04:46:18.472Z,0.42
2019-01-17T04:48:50.046Z,0.44
2019-01-17T04:51:21.363Z,0.50
2019-01-17T04:53:52.579Z,0.54
2019-01-17T04:56:23.894Z,0.42
2019-01-17T04:58:55.265Z,0.36
2019-01-17T05:01:26.465Z,0.34
2019-01-17T05:03:57.693Z,0.33
2019-01-17T05:06:29.360Z,0.17
2019-01-17T05:09:00.598Z,0.28
2019-01-17T05:11:32.151Z,0.26
2019-01-17T05:14:03.380Z,0.28
2019-01-17T05:16:34.582Z,0.27
2019-01-17T05:19:05.987Z,0.22
2019-01-17T05:21:37.175Z,0.29
2019-01-17T05:24:08.502Z,0.10
2019-01-17T05:26:39.738Z,0.26
2019-01-17T05:29:10.991Z,0.07
2019-01-17T05:31:42.211Z,0.11
2019-01-17T05:34:13.439Z,-0.16
2019-01-17T05:36:46.804Z,-0.22
2019-01-17T05:39:18.211Z,-0.26
2019-01-17T05:41:49.556Z,-0.51
2019-01-17T05:44:20.884Z,-0.45
2019-01-17T05:46:52.357Z,-0.39
2019-01-17T05:50:05.273Z,-0.27
2019-01-17T05:52:36.499Z,-0.27
2019-01-17T05:55:07.898Z,-0.28
2019-01-17T05:57:39.123Z,-0.15
2019-01-17T06:00:13.830Z,0.16
2019-01-17T06:02:45.017Z,0.37
2019-01-17T06:05:17.024Z,0.64
2019-01-17T06:07:48.295Z,0.68
2019-01-17T06:10:19.528Z,0.87
2019-01-17T06:12:52.135Z,1.08
2019-01-17T06:15:24.148Z,1.20
2019-01-17T06:17:55.414Z,1.39
2019-01-17T06:20:26.631Z,1.60
2019-01-17T06:22:58.041Z,1.76
2019-01-17T06:25:29.397Z,1.98
2019-01-17T06:28:00.845Z,2.14
2019-01-17T06:30:32.072Z,2.17
2019-01-17T06:33:03.570Z,2.24
2019-01-17T06:35:35.024Z,2.15
2019-01-17T06:38:06.571Z,2.25
2019-01-17T06:40:37.794Z,2.31
2019-01-17T06:43:09.038Z,2.50
2019-01-17T06:45:40.457Z,2.55
2019-01-17T06:48:11.653Z,2.43
2019-01-17T06:50:42.881Z,2.54
2019-01-17T06:53:14.068Z,2.60
2019-01-17T06:55:45.383Z,2.67
2019-01-17T06:58:16.612Z,2.79
2019-01-17T07:00:53.764Z,2.76
2019-01-17T07:03:25.031Z,2.70
2019-01-17T07:05:56.660Z,2.79
2019-01-17T07:08:27.894Z,2.92
2019-01-17T07:10:59.567Z,2.96
2019-01-17T07:13:33.694Z,2.92
2019-01-17T07:16:05.008Z,2.99
2019-01-17T07:18:36.381Z,2.91
2019-01-17T07:21:07.670Z,2.94
2019-01-17T07:23:38.993Z,3.05
2019-01-17T07:26:10.187Z,2.97
2019-01-17T07:28:41.585Z,2.98
2019-01-17T07:31:12.779Z,3.00
2019-01-17T07:33:44.155Z,3.03
2019-01-17T07:36:15.462Z,3.18
2019-01-17T07:38:46.665Z,3.31
2019-01-17T07:41:17.970Z,3.25
2019-01-17T07:43:49.170Z,3.30
2019-01-17T07:46:20.828Z,3.44
2019-01-17T07:48:52.112Z,3.52
2019-01-17T07:51:23.489Z,3.63
2019-01-17T07:53:54.913Z,3.73
2019-01-17T07:56:26.675Z,3.81
2019-01-17T07:58:58.014Z,3.88
2019-01-17T08:01:29.679Z,4.03
2019-01-17T08:04:01.088Z,4.17
2019-01-17T08:06:32.497Z,4.23
2019-01-17T08:09:04.782Z,4.32
2019-01-17T08:11:36.115Z,4.23
2019-01-17T08:14:07.422Z,4.20
2019-01-17T08:16:38.811Z,4.06
2019-01-17T08:19:10.086Z,4.13
2019-01-17T08:21:46.625Z,4.05
2019-01-17T08:24:17.940Z,4.12
2019-01-17T08:26:49.243Z,4.16
2019-01-17T08:29:20.546Z,4.13
2019-01-17T08:31:51.853Z,4.04
2019-01-17T08:34:28.327Z,4.15
2019-01-17T08:36:56.313Z,4.16
2019-01-17T08:39:27.839Z,3.57
2019-01-17T08:41:59.390Z,4.16
2019-01-17T08:44:38.332Z,4.19
2019-01-17T08:47:09.701Z,4.10
2019-01-17T08:49:41.242Z,4.05
2019-01-17T08:52:12.516Z,4.16
2019-01-17T08:54:43.798Z,4.11
2019-01-17T08:57:16.221Z,4.00
2019-01-17T08:59:47.521Z,4.07
2019-01-17T09:02:24.852Z,4.05
2019-01-17T09:04:57.492Z,4.14
2019-01-17T09:07:28.725Z,4.19
2019-01-17T09:09:59.953Z,4.24
2019-01-17T09:12:31.185Z,4.51
2019-01-17T09:15:02.425Z,4.87
2019-01-17T09:17:33.650Z,5.29
2019-01-17T09:20:06.335Z,5.45
2019-01-17T09:22:37.651Z,5.40
2019-01-17T09:25:10.924Z,5.47
2019-01-17T09:27:42.171Z,5.55
2019-01-17T09:30:15.877Z,5.60
2019-01-17T09:32:54.146Z,5.42
2019-01-17T09:35:25.341Z,5.50
2019-01-17T09:37:56.869Z,5.46
2019-01-17T09:40:28.095Z,5.49
2019-01-17T09:43:05.710Z,5.76
2019-01-17T09:45:36.987Z,6.64
2019-01-17T09:48:08.370Z,7.03
2019-01-17T09:50:39.650Z,7.30
2019-01-17T09:53:16.063Z,7.64
2019-01-17T09:55:47.282Z,7.82
2019-01-17T09:58:18.556Z,8.12
2019-01-17T10:00:49.762Z,7.86
2019-01-17T10:03:20.970Z,7.75
2019-01-17T10:05:52.327Z,6.28
2019-01-17T10:08:23.559Z,7.97
2019-01-17T10:10:56.374Z,8.11
2019-01-17T10:13:32.041Z,8.28
2019-01-17T10:16:22.138Z,7.98
2019-01-17T10:19:29.985Z,8.46
2019-01-17T10:23:12.522Z,8.73
2019-01-17T10:26:06.745Z,9.15
2019-01-17T10:29:09.366Z,9.75
2019-01-17T10:32:18.710Z,9.40
2019-01-17T10:35:25.306Z,10.29
2019-01-17T10:38:23.897Z,9.84
2019-01-17T10:41:28.098Z,9.45
2019-01-17T10:44:30.109Z,10.02
2019-01-17T10:47:39.350Z,10.51
2019-01-17T10:50:47.396Z,11.08
2019-01-17T10:54:07.617Z,9.52
2019-01-17T10:56:57.971Z,10.67
2019-01-17T11:00:03.535Z,10.83
2019-01-17T11:02:49.415Z,10.13
2019-01-17T11:06:07.867Z,9.83
2019-01-17T11:09:12.686Z,10.83
2019-01-17T11:11:57.015Z,11.18
2019-01-17T11:15:15.405Z,12.06
2019-01-17T11:18:14.431Z,12.28
2019-01-17T11:21:28.547Z,12.34
2019-01-17T11:24:55.787Z,12.30
2019-01-17T11:27:51.950Z,12.39
2019-01-17T11:30:34.336Z,12.54
2019-01-17T11:34:01.919Z,12.12
2019-01-17T11:36:47.422Z,12.87
2019-01-17T11:39:42.869Z,11.87
2019-01-17T11:43:08.431Z,11.70
2019-01-17T11:46:32.891Z,11.96
2019-01-17T11:49:59.138Z,11.94
2019-01-17T11:53:16.199Z,12.60
2019-01-17T11:56:41.017Z,13.28
2019-01-17T11:59:41.867Z,13.10
2019-01-17T12:02:26.450Z,12.46
2019-01-17T12:04:56.021Z,13.36
2019-01-17T12:07:27.336Z,12.48
2019-01-17T12:09:58.557Z,13.75
2019-01-17T12:12:29.834Z,13.36
2019-01-17T12:15:01.382Z,14.56
2019-01-17T12:17:32.665Z,14.63
2019-01-17T12:20:04.619Z,13.11
2019-01-17T12:22:35.910Z,13.41
2019-01-17T12:25:07.695Z,13.73
2019-01-17T12:27:42.496Z,14.43
2019-01-17T12:30:14.569Z,15.40
2019-01-17T12:32:45.895Z,15.79
2019-01-17T12:35:17.247Z,16.45
2019-01-17T12:37:48.680Z,15.02
2019-01-17T12:40:19.968Z,15.74
2019-01-17T12:42:51.218Z,14.86
2019-01-17T12:45:22.400Z,13.48
2019-01-17T12:47:53.732Z,13.07
2019-01-17T12:50:25.064Z,13.58
2019-01-17T12:52:56.286Z,13.77
2019-01-17T12:55:27.598Z,13.60
2019-01-17T12:57:58.918Z,13.79
2019-01-17T13:00:30.162Z,13.93
2019-01-17T13:03:01.379Z,14.02
2019-01-17T13:05:32.753Z,13.95
2019-01-17T13:08:04.089Z,14.12
2019-01-17T13:10:35.504Z,13.70
2019-01-17T13:13:06.839Z,14.81
2019-01-17T13:15:39.167Z,15.54
2019-01-17T13:18:17.902Z,15.11
2019-01-17T13:20:49.365Z,15.71
2019-01-17T13:23:20.645Z,15.84
2019-01-17T13:25:51.996Z,16.48
2019-01-17T13:28:23.315Z,16.51
2019-01-17T13:30:54.575Z,16.81
2019-01-17T13:33:25.925Z,16.83
2019-01-17T13:35:58.435Z,16.57
2019-01-17T13:38:31.034Z,17.20
2019-01-17T13:41:02.300Z,17.52
2019-01-17T13:43:33.783Z,17.22
2019-01-17T13:46:05.114Z,17.40
2019-01-17T13:48:36.450Z,17.51
2019-01-17T13:51:07.781Z,17.35
2019-01-17T13:53:39.794Z,16.65
2019-01-17T13:56:11.044Z,16.04
2019-01-17T13:58:42.630Z,16.57
2019-01-17T14:01:13.968Z,17.17
2019-01-17T14:03:45.870Z,16.73
2019-01-17T14:06:17.068Z,17.39
2019-01-17T14:08:48.368Z,17.40
2019-01-17T14:11:19.566Z,16.12
2019-01-17T14:13:50.880Z,17.22
2019-01-17T14:16:23.824Z,16.70
2019-01-17T14:18:55.024Z,16.70
2019-01-17T14:21:26.329Z,16.43
2019-01-17T14:23:57.558Z,14.88
2019-01-17T14:26:28.879Z,15.76
2019-01-17T14:29:00.212Z,15.87
2019-01-17T14:31:31.755Z,15.01
2019-01-17T14:34:03.257Z,14.69
2019-01-17T14:36:34.541Z,15.15
2019-01-17T14:39:08.441Z,13.57
2019-01-17T14:41:39.686Z,11.91
2019-01-17T14:44:10.938Z,11.24
2019-01-17T14:46:42.510Z,10.74
2019-01-17T14:49:15.394Z,10.07
2019-01-17T14:51:46.771Z,9.90
2019-01-17T14:54:17.973Z,8.84
2019-01-17T14:56:49.198Z,8.55
2019-01-17T14:59:20.395Z,8.36
2019-01-17T15:01:51.621Z,7.77
2019-01-17T15:04:22.854Z,7.58
2019-01-17T15:06:54.113Z,7.61
2019-01-17T15:09:25.383Z,7.42
2019-01-17T15:11:56.690Z,7.01
2019-01-17T15:14:27.986Z,6.89
2019-01-17T15:16:59.322Z,6.75
2019-01-17T15:19:30.649Z,6.80
2019-01-17T15:22:01.853Z,6.08
2019-01-17T15:24:33.520Z,6.15
2019-01-17T15:27:15.309Z,6.30
2019-01-17T15:29:46.534Z,6.30
2019-01-17T15:32:17.739Z,6.34
2019-01-17T15:34:56.706Z,6.46
2019-01-17T15:37:37.046Z,6.05
2019-01-17T15:40:12.247Z,5.76
2019-01-17T15:42:43.504Z,5.49
2019-01-17T15:45:14.731Z,5.49
2019-01-17T15:47:45.979Z,5.28
2019-01-17T15:50:17.295Z,5.01
2019-01-17T15:52:48.593Z,4.73
2019-01-17T15:55:19.895Z,4.81
2019-01-17T15:57:51.241Z,4.67
2019-01-17T16:00:28.190Z,4.63
2019-01-17T16:02:59.487Z,4.42
2019-01-17T16:05:36.372Z,4.50
2019-01-17T16:08:07.553Z,4.61
2019-01-17T16:10:45.660Z,4.45
2019-01-17T16:13:16.989Z,4.55
2019-01-17T16:15:48.204Z,4.16
2019-01-17T16:18:32.389Z,3.99
2019-01-17T16:21:11.032Z,4.13
2019-01-17T16:23:42.257Z,4.20
2019-01-17T16:26:33.908Z,4.22
2019-01-17T16:29:06.654Z,4.37
2019-01-17T16:31:39.740Z,4.36
2019-01-17T16:34:17.220Z,4.41
2019-01-17T16:36:48.604Z,4.52
2019-01-17T16:39:27.027Z,4.54
2019-01-17T16:42:07.760Z,4.44
2019-01-17T16:44:44.431Z,4.35
2019-01-17T16:47:15.654Z,4.35
2019-01-17T16:49:46.869Z,4.40
2019-01-17T16:52:18.112Z,4.32
2019-01-17T16:54:49.544Z,4.37
2019-01-17T16:57:21.299Z,4.35
2019-01-17T16:59:52.650Z,4.32
2019-01-17T17:02:23.904Z,4.27
2019-01-17T17:04:56.746Z,4.24
2019-01-17T17:07:28.052Z,4.26
2019-01-17T17:09:59.499Z,4.07
2019-01-17T17:12:30.742Z,4.02
2019-01-17T17:15:02.139Z,4.13
2019-01-17T17:17:33.466Z,3.88
2019-01-17T17:20:07.189Z,3.87
2019-01-17T17:22:39.081Z,3.97
2019-01-17T17:25:10.437Z,3.90
2019-01-17T17:27:41.706Z,3.88
2019-01-17T17:30:18.380Z,3.78
2019-01-17T17:32:50.892Z,3.81
2019-01-17T17:35:22.850Z,3.70
2019-01-17T17:37:54.266Z,3.72
2019-01-17T17:40:30.362Z,3.61
2019-01-17T17:43:01.853Z,3.79
2019-01-17T17:45:34.838Z,3.92
2019-01-17T17:48:06.948Z,4.00
2019-01-17T17:50:38.200Z,4.26
2019-01-17T17:53:11.220Z,4.23
2019-01-17T17:55:42.496Z,4.11
2019-01-17T17:58:13.772Z,4.16
2019-01-17T18:01:04.361Z,4.21
2019-01-17T18:03:35.714Z,4.33
2019-01-17T18:06:06.957Z,4.38
2019-01-17T18:08:38.469Z,4.56
2019-01-17T18:11:09.876Z,4.54
2019-01-17T18:13:42.683Z,4.42
2019-01-17T18:16:13.911Z,4.44
2019-01-17T18:18:45.237Z,4.63
2019-01-17T18:21:16.466Z,4.51
2019-01-17T18:23:47.783Z,4.55
2019-01-17T18:26:19.291Z,4.73
2019-01-17T18:28:50.497Z,4.66
2019-01-17T18:31:21.829Z,4.80
2019-01-17T18:33:53.183Z,4.84
2019-01-17T18:36:24.480Z,4.79
2019-01-17T18:38:56.116Z,4.75
2019-01-17T18:41:27.358Z,4.92
2019-01-17T18:43:58.589Z,4.79
2019-01-17T18:46:29.888Z,4.87
2019-01-17T18:49:01.159Z,4.92
2019-01-17T18:51:32.524Z,4.96
2019-01-17T18:54:03.885Z,4.91
2019-01-17T18:56:35.176Z,4.92
2019-01-17T18:59:06.781Z,4.88
2019-01-17T19:01:38.056Z,4.90
2019-01-17T19:04:10.173Z,4.88
2019-01-17T19:06:42.206Z,4.85
2019-01-17T19:09:13.426Z,4.70
2019-01-17T19:11:44.697Z,4.81
2019-01-17T19:14:16.062Z,4.73
2019-01-17T19:16:47.380Z,4.77
2019-01-17T19:19:18.643Z,4.75
2019-01-17T19:21:49.930Z,4.60
2019-01-17T19:24:22.564Z,4.69
2019-01-17T19:26:53.788Z,4.50
2019-01-17T19:29:25.081Z,4.37
2019-01-17T19:31:56.382Z,4.44
2019-01-17T19:34:27.726Z,4.26
2019-01-17T19:36:59.017Z,4.38
2019-01-17T19:39:30.419Z,4.36
2019-01-17T19:42:01.736Z,4.30
2019-01-17T19:44:33.165Z,4.18
2019-01-17T19:47:04.447Z,4.19
2019-01-17T19:49:35.740Z,4.25
2019-01-17T19:52:08.941Z,4.15
2019-01-17T19:54:40.289Z,3.94
2019-01-17T19:57:11.583Z,3.98
2019-01-17T19:59:42.906Z,3.89
2019-01-17T20:02:14.643Z,3.98
2019-01-17T20:04:46.048Z,3.93
2019-01-17T20:07:17.344Z,3.84
2019-01-17T20:09:48.663Z,3.70
2019-01-17T20:12:19.950Z,3.67
2019-01-17T20:14:51.303Z,3.84
2019-01-17T20:17:22.564Z,3.76
2019-01-17T20:19:53.901Z,3.80
2019-01-17T20:22:25.230Z,3.67
2019-01-17T20:24:56.641Z,3.62
2019-01-17T20:27:27.897Z,3.69
2019-01-17T20:29:59.219Z,3.78
2019-01-17T20:32:30.430Z,3.69
2019-01-17T20:35:01.679Z,3.69
2019-01-17T20:37:32.896Z,3.68
2019-01-17T20:40:04.610Z,3.75
2019-01-17T20:42:35.859Z,3.78
2019-01-17T20:45:09.030Z,3.82
2019-01-17T20:47:40.356Z,3.64
2019-01-17T20:50:13.731Z,3.56
2019-01-17T20:52:45.045Z,3.57
2019-01-17T20:55:16.392Z,3.56
2019-01-17T20:57:48.570Z,3.70
2019-01-17T21:00:52.849Z,3.78
2019-01-17T21:03:24.850Z,3.72
2019-01-17T21:05:56.307Z,3.75
2019-01-17T21:08:27.563Z,3.62
2019-01-17T21:10:59.142Z,3.65
2019-01-17T21:13:31.820Z,3.72
2019-01-17T21:16:03.135Z,3.69
2019-01-17T21:18:36.626Z,3.72
2019-01-17T21:21:08.256Z,3.94
2019-01-17T21:23:39.499Z,3.90
2019-01-17T21:26:10.707Z,3.63
2019-01-17T21:28:41.991Z,3.73
2019-01-17T21:31:13.339Z,3.75
2019-01-17T21:33:44.690Z,3.75
2019-01-17T21:36:16.073Z,3.75
2019-01-17T21:38:47.302Z,3.89
2019-01-17T21:41:18.634Z,3.75
2019-01-17T21:43:49.860Z,3.82
2019-01-17T21:46:22.700Z,3.81
2019-01-17T21:48:54.343Z,3.87
2019-01-17T21:51:25.588Z,3.83
2019-01-17T21:53:56.793Z,3.80
2019-01-17T21:56:28.054Z,3.73
2019-01-17T21:58:59.919Z,3.72
2019-01-17T22:01:31.241Z,3.80
2019-01-17T22:04:02.607Z,3.72
2019-01-17T22:06:33.828Z,3.69
2019-01-17T22:09:07.639Z,3.77
2019-01-17T22:11:41.840Z,3.86
2019-01-17T22:14:13.116Z,3.89
2019-01-17T22:16:44.348Z,3.94
2019-01-17T22:19:15.632Z,3.76
2019-01-17T22:21:46.873Z,3.80
2019-01-17T22:24:18.493Z,3.79
2019-01-17T22:26:49.759Z,3.74
2019-01-17T22:29:20.987Z,3.66
2019-01-17T22:31:52.482Z,3.74
2019-01-17T22:34:23.819Z,3.81
2019-01-17T22:36:55.096Z,3.76
2019-01-17T22:39:26.335Z,3.77
2019-01-17T22:41:57.543Z,3.85
2019-01-17T22:51:08.800Z,3.73
2019-01-17T22:53:40.093Z,3.71
2019-01-17T22:56:11.351Z,3.77
2019-01-17T22:58:42.557Z,3.70
2019-01-17T23:01:20.840Z,3.69
2019-01-17T23:03:53.312Z,3.68
2019-01-17T23:06:24.552Z,3.58
2019-01-17T23:08:55.757Z,3.64
2019-01-17T23:11:29.679Z,3.69
2019-01-17T23:13:59.994Z,3.68
2019-01-17T23:16:31.187Z,3.79
2019-01-17T23:19:02.458Z,3.80
2019-01-17T23:21:33.676Z,3.82
2019-01-17T23:24:05.205Z,3.85
2019-01-17T23:26:36.468Z,3.78
2019-01-17T23:29:07.826Z,3.69
2019-01-17T23:31:39.015Z,3.80
2019-01-17T23:34:10.197Z,3.81
2019-01-17T23:36:41.436Z,3.72
2019-01-17T23:39:12.641Z,3.60
2019-01-17T23:41:43.919Z,3.59
2019-01-17T23:44:15.134Z,3.61
2019-01-17T23:46:46.458Z,3.57
2019-01-17T23:49:17.685Z,3.59
2019-01-17T23:51:48.887Z,3.55
2019-01-17T23:54:20.105Z,3.56
2019-01-17T23:56:51.335Z,3.35
2019-01-17T23:59:22.878Z,3.43
